Pagrindinis puslapis
METAR-TAF:

METAR-TAF

Oro uostai :

Kopenhaga, Danija

platuma: 55-37N, ilguma: 012-39E, Aukštis: 5 m

Dabartinis oras

Ataskaita buvo paskelbta 9 minutes, ne 16:50 UTC
Vėjas 10 kt iš Vakarų
Temperatūra 15°C
Drėgmė 77%
Slėgis 1022 hPa
Matomumas 10 km arba daugiau

METAR: EKCH 201650Z AUTO 28010KT 9999 OVC027/// 15/11 Q1022 NOSIG

Laikas: 18:59 (16:59 UTC)

Prognozė

Ataskaita buvo paskelbta 4 valandos ir 37 minutes, ne 12:22 UTC
Prognozė galioja nuo 20 metu 12 UTC su 21 metu 12 UTC
Vėjas 8 kt iš Vakarų
Matomumas 10 km arba daugiau
Išsisklaidę debesys ne aukštis 2000 ft
Laikinai
nuo 20 metu 12 UTC su 20 metu 14 UTC
Su prošvaistėmis ne aukštis 800 ft
Laikinai
nuo 21 metu 02 UTC su 21 metu 06 UTC
Su prošvaistėmis ne aukštis 800 ft

TAF: EKCH 201222Z 2012/2112 27008KT 9999 SCT020 TEMPO 2012/2014 BKN008 TEMPO 2102/2106 BKN008

Orai ataskaitas ir orų prognozės (METAR, TAF).

turimą stotys yra geltonos ir raudonos taškus žemėlapyje.

Perkelti pele per norėdami pamatyti stoties vardą.

Tada spustelėkite, norėdami matyti oro stebėjimo ir prognozės.

Norėdami pakeisti žemėlapį: spustelėkite ant žalios mygtukų su juodo kryžiaus žemyn,; žalią mygtuką su brūkšneliu, jei norite nutolinti; arba žalių rodyklių gretimoms žemėlapius.


METAR-TAF: